sensor_id;sensor_type;location;lat;lon;timestamp;pressure;altitude;pressure_sealevel;temperature;humidity
2339;BME280;1180;51.438;6.978;2023-02-17T00:03:35;100687.94;;;13.02;95.66
2339;BME280;1180;51.438;6.978;2023-02-17T00:06:07;100694.47;;;13.07;94.60
2339;BME280;1180;51.438;6.978;2023-02-17T00:08:33;100691.09;;;13.20;94.42
2339;BME280;1180;51.438;6.978;2023-02-17T00:10:59;100697.09;;;13.20;93.84
2339;BME280;1180;51.438;6.978;2023-02-17T00:13:25;100689.81;;;13.27;94.17
2339;BME280;1180;51.438;6.978;2023-02-17T00:15:50;100690.75;;;13.26;93.77
2339;BME280;1180;51.438;6.978;2023-02-17T00:18:16;100687.00;;;13.45;93.16
2339;BME280;1180;51.438;6.978;2023-02-17T00:20:41;100680.03;;;13.32;93.11
2339;BME280;1180;51.438;6.978;2023-02-17T00:23:06;100682.84;;;13.14;94.67
2339;BME280;1180;51.438;6.978;2023-02-17T00:25:32;100679.78;;;13.22;94.30
2339;BME280;1180;51.438;6.978;2023-02-17T00:27:57;100686.47;;;13.25;94.39
2339;BME280;1180;51.438;6.978;2023-02-17T00:30:22;100684.41;;;13.45;93.47
2339;BME280;1180;51.438;6.978;2023-02-17T00:32:48;100680.75;;;13.34;93.64
2339;BME280;1180;51.438;6.978;2023-02-17T00:35:13;100676.94;;;13.27;94.20
2339;BME280;1180;51.438;6.978;2023-02-17T00:37:38;100668.34;;;13.26;93.84
2339;BME280;1180;51.438;6.978;2023-02-17T00:40:05;100671.78;;;13.27;94.48
2339;BME280;1180;51.438;6.978;2023-02-17T00:42:30;100674.16;;;13.30;94.65
2339;BME280;1180;51.438;6.978;2023-02-17T00:44:56;100670.97;;;13.39;93.21
2339;BME280;1180;51.438;6.978;2023-02-17T00:47:21;100672.72;;;13.39;93.16
2339;BME280;1180;51.438;6.978;2023-02-17T00:49:47;100669.22;;;13.40;92.44
2339;BME280;1180;51.438;6.978;2023-02-17T00:52:12;100666.41;;;13.30;93.87
2339;BME280;1180;51.438;6.978;2023-02-17T00:54:37;100662.16;;;13.43;92.82
2339;BME280;1180;51.438;6.978;2023-02-17T00:57:04;100663.78;;;13.45;92.63
2339;BME280;1180;51.438;6.978;2023-02-17T00:59:30;100665.44;;;13.18;94.89
2339;BME280;1180;51.438;6.978;2023-02-17T01:01:55;100651.78;;;13.31;95.08
2339;BME280;1180;51.438;6.978;2023-02-17T01:04:20;100662.59;;;13.36;94.33
2339;BME280;1180;51.438;6.978;2023-02-17T01:06:46;100659.41;;;13.32;94.25
2339;BME280;1180;51.438;6.978;2023-02-17T01:09:13;100659.41;;;13.32;95.10
2339;BME280;1180;51.438;6.978;2023-02-17T01:11:40;100653.59;;;13.43;94.88
2339;BME280;1180;51.438;6.978;2023-02-17T01:14:06;100653.03;;;13.38;95.40
2339;BME280;1180;51.438;6.978;2023-02-17T01:16:36;100652.22;;;13.37;95.75
2339;BME280;1180;51.438;6.978;2023-02-17T01:19:07;100652.75;;;13.42;95.83
2339;BME280;1180;51.438;6.978;2023-02-17T01:21:33;100639.59;;;13.33;96.45
2339;BME280;1180;51.438;6.978;2023-02-17T01:24:02;100646.53;;;13.32;96.85
2339;BME280;1180;51.438;6.978;2023-02-17T01:26:30;100637.88;;;13.33;96.88
2339;BME280;1180;51.438;6.978;2023-02-17T01:28:56;100649.88;;;13.20;97.68
2339;BME280;1180;51.438;6.978;2023-02-17T01:31:22;100639.09;;;13.27;98.08
2339;BME280;1180;51.438;6.978;2023-02-17T01:33:48;100637.34;;;13.28;97.94
2339;BME280;1180;51.438;6.978;2023-02-17T01:36:16;100630.28;;;13.17;98.36
2339;BME280;1180;51.438;6.978;2023-02-17T01:38:41;100633.75;;;13.03;99.45
2339;BME280;1180;51.438;6.978;2023-02-17T01:41:07;100629.84;;;13.10;100.00
2339;BME280;1180;51.438;6.978;2023-02-17T01:43:32;100628.00;;;13.12;100.00
2339;BME280;1180;51.438;6.978;2023-02-17T01:46:03;100624.31;;;13.17;99.82
2339;BME280;1180;51.438;6.978;2023-02-17T01:48:39;100616.31;;;13.07;100.00
2339;BME280;1180;51.438;6.978;2023-02-17T01:56:11;100606.34;;;13.02;100.00
2339;BME280;1180;51.438;6.978;2023-02-17T01:58:41;100597.38;;;13.08;100.00
2339;BME280;1180;51.438;6.978;2023-02-17T02:01:08;100597.47;;;13.06;100.00
2339;BME280;1180;51.438;6.978;2023-02-17T02:03:35;100599.94;;;13.08;100.00
2339;BME280;1180;51.438;6.978;2023-02-17T02:06:04;100590.28;;;13.11;100.00
2339;BME280;1180;51.438;6.978;2023-02-17T02:08:36;100595.84;;;13.05;100.00
2339;BME280;1180;51.438;6.978;2023-02-17T02:11:03;100593.13;;;13.07;100.00
2339;BME280;1180;51.438;6.978;2023-02-17T02:13:29;100588.50;;;12.99;100.00
2339;BME280;1180;51.438;6.978;2023-02-17T02:16:02;100587.97;;;12.94;100.00
2339;BME280;1180;51.438;6.978;2023-02-17T02:21:36;100582.72;;;12.95;100.00
2339;BME280;1180;51.438;6.978;2023-02-17T02:30:09;100585.94;;;12.99;100.00
2339;BME280;1180;51.438;6.978;2023-02-17T02:35:08;100590.56;;;12.94;100.00
2339;BME280;1180;51.438;6.978;2023-02-17T02:37:44;100587.06;;;12.95;100.00
2339;BME280;1180;51.438;6.978;2023-02-17T02:40:14;100583.75;;;12.93;100.00
2339;BME280;1180;51.438;6.978;2023-02-17T02:42:41;100574.91;;;12.97;100.00
2339;BME280;1180;51.438;6.978;2023-02-17T02:45:09;100576.75;;;13.08;100.00
2339;BME280;1180;51.438;6.978;2023-02-17T02:47:54;100573.16;;;13.10;99.84
2339;BME280;1180;51.438;6.978;2023-02-17T02:50:36;100573.41;;;13.20;99.37
2339;BME280;1180;51.438;6.978;2023-02-17T02:58:48;100554.00;;;13.14;98.90
2339;BME280;1180;51.438;6.978;2023-02-17T03:04:11;100545.56;;;13.25;97.77
2339;BME280;1180;51.438;6.978;2023-02-17T03:06:47;100544.00;;;13.23;97.16
2339;BME280;1180;51.438;6.978;2023-02-17T03:09:20;100546.72;;;13.21;97.35
2339;BME280;1180;51.438;6.978;2023-02-17T03:11:46;100553.75;;;13.32;97.03
2339;BME280;1180;51.438;6.978;2023-02-17T03:14:15;100544.13;;;13.21;97.79
2339;BME280;1180;51.438;6.978;2023-02-17T03:16:41;100547.03;;;13.29;97.46
2339;BME280;1180;51.438;6.978;2023-02-17T03:19:08;100544.34;;;13.18;97.91
2339;BME280;1180;51.438;6.978;2023-02-17T03:21:41;100545.88;;;13.34;96.57
2339;BME280;1180;51.438;6.978;2023-02-17T03:24:08;100544.53;;;13.15;97.50
2339;BME280;1180;51.438;6.978;2023-02-17T03:26:33;100546.81;;;13.33;97.40
2339;BME280;1180;51.438;6.978;2023-02-17T03:28:59;100548.28;;;13.50;95.56
2339;BME280;1180;51.438;6.978;2023-02-17T03:31:25;100541.56;;;13.34;96.09
2339;BME280;1180;51.438;6.978;2023-02-17T03:33:50;100540.63;;;13.35;96.09
2339;BME280;1180;51.438;6.978;2023-02-17T03:36:15;100531.88;;;13.38;96.54
2339;BME280;1180;51.438;6.978;2023-02-17T03:38:41;100542.91;;;13.27;96.29
2339;BME280;1180;51.438;6.978;2023-02-17T03:41:06;100537.56;;;13.30;96.75
2339;BME280;1180;51.438;6.978;2023-02-17T03:43:32;100538.69;;;13.26;96.84
2339;BME280;1180;51.438;6.978;2023-02-17T03:45:57;100549.69;;;13.15;96.78
2339;BME280;1180;51.438;6.978;2023-02-17T03:48:22;100537.41;;;13.19;97.55
2339;BME280;1180;51.438;6.978;2023-02-17T03:50:48;100548.66;;;13.31;96.87
2339;BME280;1180;51.438;6.978;2023-02-17T03:53:13;100555.91;;;13.38;96.45
2339;BME280;1180;51.438;6.978;2023-02-17T03:55:38;100561.78;;;13.40;96.01
2339;BME280;1180;51.438;6.978;2023-02-17T03:58:04;100556.34;;;13.58;94.95
2339;BME280;1180;51.438;6.978;2023-02-17T04:00:29;100555.31;;;13.74;93.49
2339;BME280;1180;51.438;6.978;2023-02-17T04:02:54;100553.88;;;13.56;93.76
2339;BME280;1180;51.438;6.978;2023-02-17T04:05:21;100555.94;;;13.51;94.26
2339;BME280;1180;51.438;6.978;2023-02-17T04:07:47;100538.88;;;13.36;94.90
2339;BME280;1180;51.438;6.978;2023-02-17T04:10:13;100551.34;;;13.42;94.86
2339;BME280;1180;51.438;6.978;2023-02-17T04:12:38;100559.81;;;13.31;95.00
2339;BME280;1180;51.438;6.978;2023-02-17T04:15:04;100557.13;;;13.33;95.67
2339;BME280;1180;51.438;6.978;2023-02-17T04:17:30;100559.75;;;13.46;95.02
2339;BME280;1180;51.438;6.978;2023-02-17T04:19:56;100564.41;;;13.53;94.42
2339;BME280;1180;51.438;6.978;2023-02-17T04:22:21;100569.16;;;13.60;93.66
2339;BME280;1180;51.438;6.978;2023-02-17T04:24:46;100571.94;;;13.69;93.35
2339;BME280;1180;51.438;6.978;2023-02-17T04:27:12;100561.91;;;13.65;93.15
2339;BME280;1180;51.438;6.978;2023-02-17T04:29:37;100560.91;;;13.54;93.64
2339;BME280;1180;51.438;6.978;2023-02-17T04:32:02;100561.09;;;13.51;93.85
2339;BME280;1180;51.438;6.978;2023-02-17T04:34:28;100543.56;;;13.56;93.30
2339;BME280;1180;51.438;6.978;2023-02-17T04:36:53;100530.97;;;13.52;93.55
2339;BME280;1180;51.438;6.978;2023-02-17T04:39:19;100529.31;;;13.64;92.74
2339;BME280;1180;51.438;6.978;2023-02-17T04:41:44;100531.47;;;13.57;92.24
2339;BME280;1180;51.438;6.978;2023-02-17T04:44:09;100529.22;;;13.65;92.15
2339;BME280;1180;51.438;6.978;2023-02-17T04:46:35;100521.91;;;13.59;92.87
2339;BME280;1180;51.438;6.978;2023-02-17T04:49:00;100527.59;;;13.64;92.05
2339;BME280;1180;51.438;6.978;2023-02-17T04:51:28;100530.53;;;13.71;91.37
2339;BME280;1180;51.438;6.978;2023-02-17T04:53:53;100532.03;;;13.62;91.78
2339;BME280;1180;51.438;6.978;2023-02-17T04:56:19;100522.44;;;13.64;91.68
2339;BME280;1180;51.438;6.978;2023-02-17T04:58:44;100521.91;;;13.46;92.50
2339;BME280;1180;51.438;6.978;2023-02-17T05:01:09;100520.94;;;13.34;94.07
2339;BME280;1180;51.438;6.978;2023-02-17T05:03:35;100528.09;;;13.43;93.25
2339;BME280;1180;51.438;6.978;2023-02-17T05:06:00;100532.94;;;13.48;93.03
2339;BME280;1180;51.438;6.978;2023-02-17T05:08:25;100529.03;;;13.55;92.54
2339;BME280;1180;51.438;6.978;2023-02-17T05:10:51;100536.63;;;13.57;92.48
2339;BME280;1180;51.438;6.978;2023-02-17T05:13:17;100542.41;;;13.48;92.60
2339;BME280;1180;51.438;6.978;2023-02-17T05:15:43;100548.09;;;13.53;92.60
2339;BME280;1180;51.438;6.978;2023-02-17T05:18:08;100553.03;;;13.56;91.25
2339;BME280;1180;51.438;6.978;2023-02-17T05:20:34;100551.59;;;13.52;91.19
2339;BME280;1180;51.438;6.978;2023-02-17T05:22:59;100553.66;;;13.47;91.63
2339;BME280;1180;51.438;6.978;2023-02-17T05:25:25;100523.16;;;13.53;91.46
2339;BME280;1180;51.438;6.978;2023-02-17T05:27:50;100526.19;;;13.33;93.04
2339;BME280;1180;51.438;6.978;2023-02-17T05:30:15;100521.50;;;13.52;92.25
2339;BME280;1180;51.438;6.978;2023-02-17T05:32:41;100543.44;;;13.58;92.15
2339;BME280;1180;51.438;6.978;2023-02-17T05:35:06;100538.50;;;13.55;91.97
2339;BME280;1180;51.438;6.978;2023-02-17T05:37:32;100536.34;;;13.62;92.50
2339;BME280;1180;51.438;6.978;2023-02-17T05:39:58;100546.41;;;13.39;94.01
2339;BME280;1180;51.438;6.978;2023-02-17T05:42:24;100532.22;;;13.46;93.79
2339;BME280;1180;51.438;6.978;2023-02-17T05:44:54;100530.38;;;13.48;93.96
2339;BME280;1180;51.438;6.978;2023-02-17T05:47:20;100521.91;;;13.46;94.22
2339;BME280;1180;51.438;6.978;2023-02-17T05:49:46;100520.44;;;13.55;93.88
2339;BME280;1180;51.438;6.978;2023-02-17T05:52:11;100521.72;;;13.49;94.07
2339;BME280;1180;51.438;6.978;2023-02-17T05:54:36;100527.47;;;13.53;93.57
2339;BME280;1180;51.438;6.978;2023-02-17T05:57:02;100514.47;;;13.54;93.51
2339;BME280;1180;51.438;6.978;2023-02-17T05:59:27;100521.59;;;13.51;92.99
2339;BME280;1180;51.438;6.978;2023-02-17T06:01:53;100523.56;;;13.47;93.51
2339;BME280;1180;51.438;6.978;2023-02-17T06:04:18;100520.16;;;13.47;93.08
2339;BME280;1180;51.438;6.978;2023-02-17T06:06:43;100516.19;;;13.41;93.62
2339;BME280;1180;51.438;6.978;2023-02-17T06:09:09;100524.28;;;13.49;92.98
2339;BME280;1180;51.438;6.978;2023-02-17T06:11:34;100521.72;;;13.62;93.02
2339;BME280;1180;51.438;6.978;2023-02-17T06:13:59;100515.19;;;13.56;92.43
2339;BME280;1180;51.438;6.978;2023-02-17T06:16:25;100502.31;;;13.69;92.24
2339;BME280;1180;51.438;6.978;2023-02-17T06:18:50;100508.69;;;13.77;91.77
2339;BME280;1180;51.438;6.978;2023-02-17T06:21:15;100492.19;;;13.66;91.88
2339;BME280;1180;51.438;6.978;2023-02-17T06:23:41;100517.97;;;13.40;94.07
2339;BME280;1180;51.438;6.978;2023-02-17T06:26:09;100517.44;;;13.35;94.73
2339;BME280;1180;51.438;6.978;2023-02-17T06:28:35;100521.16;;;13.57;94.26
2339;BME280;1180;51.438;6.978;2023-02-17T06:31:00;100527.38;;;13.67;93.44
2339;BME280;1180;51.438;6.978;2023-02-17T06:33:25;100530.56;;;13.58;93.35
2339;BME280;1180;51.438;6.978;2023-02-17T06:35:51;100521.59;;;13.64;92.96
2339;BME280;1180;51.438;6.978;2023-02-17T06:38:17;100533.88;;;13.60;93.22
2339;BME280;1180;51.438;6.978;2023-02-17T06:40:43;100532.22;;;13.59;93.62
2339;BME280;1180;51.438;6.978;2023-02-17T06:43:08;100533.97;;;13.58;94.05
2339;BME280;1180;51.438;6.978;2023-02-17T06:45:33;100536.75;;;13.55;94.18
2339;BME280;1180;51.438;6.978;2023-02-17T06:47:59;100537.75;;;13.40;95.76
2339;BME280;1180;51.438;6.978;2023-02-17T06:50:24;100527.47;;;13.53;95.20
2339;BME280;1180;51.438;6.978;2023-02-17T06:52:50;100530.84;;;13.40;96.12
2339;BME280;1180;51.438;6.978;2023-02-17T06:55:15;100527.53;;;13.38;97.91
2339;BME280;1180;51.438;6.978;2023-02-17T06:57:40;100522.50;;;13.50;98.36
2339;BME280;1180;51.438;6.978;2023-02-17T07:00:06;100521.56;;;13.38;99.60
2339;BME280;1180;51.438;6.978;2023-02-17T07:02:32;100527.06;;;13.46;100.00
2339;BME280;1180;51.438;6.978;2023-02-17T07:04:57;100524.75;;;13.41;100.00
2339;BME280;1180;51.438;6.978;2023-02-17T07:07:22;100530.13;;;13.38;100.00
2339;BME280;1180;51.438;6.978;2023-02-17T07:09:48;100515.25;;;13.42;100.00
2339;BME280;1180;51.438;6.978;2023-02-17T07:12:13;100511.88;;;13.28;100.00
2339;BME280;1180;51.438;6.978;2023-02-17T07:14:38;100513.72;;;13.39;100.00
2339;BME280;1180;51.438;6.978;2023-02-17T07:17:04;100539.06;;;13.20;100.00
2339;BME280;1180;51.438;6.978;2023-02-17T07:19:29;100545.34;;;13.15;100.00
2339;BME280;1180;51.438;6.978;2023-02-17T07:21:55;100539.56;;;13.25;100.00
2339;BME280;1180;51.438;6.978;2023-02-17T07:24:20;100533.53;;;13.26;100.00
2339;BME280;1180;51.438;6.978;2023-02-17T07:26:46;100542.03;;;13.13;100.00
2339;BME280;1180;51.438;6.978;2023-02-17T07:29:11;100547.31;;;13.25;100.00
2339;BME280;1180;51.438;6.978;2023-02-17T07:31:36;100538.84;;;13.23;100.00
2339;BME280;1180;51.438;6.978;2023-02-17T07:34:03;100543.94;;;13.24;100.00
2339;BME280;1180;51.438;6.978;2023-02-17T07:36:29;100533.63;;;13.24;100.00
2339;BME280;1180;51.438;6.978;2023-02-17T07:38:55;100529.28;;;13.25;100.00
2339;BME280;1180;51.438;6.978;2023-02-17T07:41:22;100535.06;;;13.28;100.00
2339;BME280;1180;51.438;6.978;2023-02-17T07:43:52;100538.16;;;13.34;100.00
2339;BME280;1180;51.438;6.978;2023-02-17T07:46:18;100531.78;;;13.39;100.00
2339;BME280;1180;51.438;6.978;2023-02-17T07:48:44;100529.53;;;13.48;100.00
2339;BME280;1180;51.438;6.978;2023-02-17T07:51:14;100523.66;;;13.46;100.00
2339;BME280;1180;51.438;6.978;2023-02-17T07:53:40;100519.44;;;13.57;100.00
2339;BME280;1180;51.438;6.978;2023-02-17T07:56:07;100529.75;;;13.45;100.00
2339;BME280;1180;51.438;6.978;2023-02-17T07:58:34;100515.91;;;13.58;99.89
2339;BME280;1180;51.438;6.978;2023-02-17T08:01:08;100525.41;;;13.58;99.84
2339;BME280;1180;51.438;6.978;2023-02-17T08:03:35;100515.28;;;13.55;99.88
2339;BME280;1180;51.438;6.978;2023-02-17T08:06:01;100523.22;;;13.65;99.95
2339;BME280;1180;51.438;6.978;2023-02-17T08:08:27;100518.72;;;13.68;99.18
2339;BME280;1180;51.438;6.978;2023-02-17T08:11:12;100530.75;;;13.81;97.97
2339;BME280;1180;51.438;6.978;2023-02-17T08:13:56;100524.56;;;13.83;98.72
2339;BME280;1180;51.438;6.978;2023-02-17T08:16:22;100514.97;;;13.85;97.17
2339;BME280;1180;51.438;6.978;2023-02-17T08:18:47;100531.56;;;13.94;96.96
2339;BME280;1180;51.438;6.978;2023-02-17T08:21:12;100527.03;;;13.85;97.41
2339;BME280;1180;51.438;6.978;2023-02-17T08:23:38;100513.03;;;13.50;99.04
2339;BME280;1180;51.438;6.978;2023-02-17T08:26:03;100513.84;;;13.51;100.00
2339;BME280;1180;51.438;6.978;2023-02-17T08:28:29;100514.47;;;13.67;99.18
2339;BME280;1180;51.438;6.978;2023-02-17T08:30:54;100499.59;;;13.58;99.54
2339;BME280;1180;51.438;6.978;2023-02-17T08:33:20;100500.31;;;13.86;98.24
2339;BME280;1180;51.438;6.978;2023-02-17T08:35:45;100495.84;;;13.88;97.64
2339;BME280;1180;51.438;6.978;2023-02-17T08:38:11;100497.91;;;13.96;97.29
2339;BME280;1180;51.438;6.978;2023-02-17T08:40:38;100495.13;;;13.99;96.91
2339;BME280;1180;51.438;6.978;2023-02-17T08:43:06;100490.22;;;14.07;96.06
2339;BME280;1180;51.438;6.978;2023-02-17T08:45:32;100495.63;;;14.04;95.92
2339;BME280;1180;51.438;6.978;2023-02-17T08:47:57;100495.03;;;14.00;95.94
2339;BME280;1180;51.438;6.978;2023-02-17T08:50:23;100499.47;;;13.98;96.50
2339;BME280;1180;51.438;6.978;2023-02-17T08:52:48;100492.56;;;13.86;97.39
2339;BME280;1180;51.438;6.978;2023-02-17T08:55:13;100509.09;;;13.83;96.87
2339;BME280;1180;51.438;6.978;2023-02-17T08:57:39;100504.75;;;13.84;97.67
2339;BME280;1180;51.438;6.978;2023-02-17T09:00:06;100508.84;;;13.99;96.19
2339;BME280;1180;51.438;6.978;2023-02-17T09:02:32;100513.59;;;14.06;96.20
2339;BME280;1180;51.438;6.978;2023-02-17T09:04:57;100506.97;;;14.14;95.62
2339;BME280;1180;51.438;6.978;2023-02-17T09:07:22;100528.38;;;14.28;94.77
2339;BME280;1180;51.438;6.978;2023-02-17T09:09:48;100519.53;;;14.19;94.69
2339;BME280;1180;51.438;6.978;2023-02-17T09:12:13;100507.41;;;13.95;95.27
2339;BME280;1180;51.438;6.978;2023-02-17T09:14:39;100517.75;;;13.95;96.21
2339;BME280;1180;51.438;6.978;2023-02-17T09:17:04;100520.47;;;14.05;96.39
2339;BME280;1180;51.438;6.978;2023-02-17T09:19:30;100523.16;;;14.17;95.75
2339;BME280;1180;51.438;6.978;2023-02-17T09:21:56;100523.22;;;14.28;94.86
2339;BME280;1180;51.438;6.978;2023-02-17T09:24:21;100527.63;;;14.39;94.36
2339;BME280;1180;51.438;6.978;2023-02-17T09:26:47;100524.47;;;14.22;94.46
2339;BME280;1180;51.438;6.978;2023-02-17T09:29:12;100520.53;;;14.29;94.08
2339;BME280;1180;51.438;6.978;2023-02-17T09:31:37;100512.91;;;14.28;95.07
2339;BME280;1180;51.438;6.978;2023-02-17T09:34:03;100525.50;;;14.33;94.28
2339;BME280;1180;51.438;6.978;2023-02-17T09:36:37;100520.75;;;14.26;95.44
2339;BME280;1180;51.438;6.978;2023-02-17T09:39:03;100516.97;;;14.43;93.91
2339;BME280;1180;51.438;6.978;2023-02-17T09:41:37;100528.56;;;14.38;93.58
2339;BME280;1180;51.438;6.978;2023-02-17T09:44:24;100520.94;;;14.23;93.91
2339;BME280;1180;51.438;6.978;2023-02-17T09:47:00;100522.78;;;14.34;95.07
2339;BME280;1180;51.438;6.978;2023-02-17T09:49:31;100529.81;;;14.56;92.98
2339;BME280;1180;51.438;6.978;2023-02-17T09:52:10;100530.38;;;14.49;93.23
2339;BME280;1180;51.438;6.978;2023-02-17T09:55:24;100528.28;;;14.54;92.98
2339;BME280;1180;51.438;6.978;2023-02-17T09:57:57;100532.78;;;14.63;92.96
2339;BME280;1180;51.438;6.978;2023-02-17T10:00:28;100541.84;;;14.82;91.73
2339;BME280;1180;51.438;6.978;2023-02-17T10:03:09;100536.22;;;14.88;91.15
2339;BME280;1180;51.438;6.978;2023-02-17T10:05:40;100533.41;;;14.67;92.25
2339;BME280;1180;51.438;6.978;2023-02-17T10:08:13;100536.06;;;14.78;92.14
2339;BME280;1180;51.438;6.978;2023-02-17T10:10:53;100540.78;;;14.84;92.15
2339;BME280;1180;51.438;6.978;2023-02-17T10:13:24;100550.56;;;14.92;90.86
2339;BME280;1180;51.438;6.978;2023-02-17T10:15:52;100551.44;;;15.04;91.04
2339;BME280;1180;51.438;6.978;2023-02-17T10:18:30;100549.78;;;15.03;90.42
2339;BME280;1180;51.438;6.978;2023-02-17T10:21:03;100558.56;;;15.00;90.71
2339;BME280;1180;51.438;6.978;2023-02-17T10:23:32;100550.97;;;15.10;90.11
2339;BME280;1180;51.438;6.978;2023-02-17T10:29:05;100578.75;;;15.31;88.83
2339;BME280;1180;51.438;6.978;2023-02-17T10:37:23;100566.59;;;15.09;90.02
2339;BME280;1180;51.438;6.978;2023-02-17T10:39:51;100564.75;;;15.22;89.02
2339;BME280;1180;51.438;6.978;2023-02-17T10:42:27;100540.59;;;14.99;90.00
2339;BME280;1180;51.438;6.978;2023-02-17T10:48:11;100529.59;;;15.08;89.99
2339;BME280;1180;51.438;6.978;2023-02-17T10:50:40;100536.59;;;14.95;90.41
2339;BME280;1180;51.438;6.978;2023-02-17T10:53:17;100549.84;;;15.26;89.49
2339;BME280;1180;51.438;6.978;2023-02-17T10:58:21;100543.84;;;15.25;88.72
2339;BME280;1180;51.438;6.978;2023-02-17T11:00:52;100544.78;;;15.36;88.60
2339;BME280;1180;51.438;6.978;2023-02-17T11:03:23;100547.41;;;15.47;88.05
2339;BME280;1180;51.438;6.978;2023-02-17T11:06:00;100533.28;;;15.40;87.82
2339;BME280;1180;51.438;6.978;2023-02-17T11:08:30;100538.09;;;15.33;88.00
2339;BME280;1180;51.438;6.978;2023-02-17T11:11:14;100512.56;;;15.28;88.18
2339;BME280;1180;51.438;6.978;2023-02-17T11:14:19;100521.41;;;15.26;88.06
2339;BME280;1180;51.438;6.978;2023-02-17T11:16:53;100511.97;;;15.13;87.70
2339;BME280;1180;51.438;6.978;2023-02-17T11:19:23;100511.63;;;15.29;87.38
2339;BME280;1180;51.438;6.978;2023-02-17T11:21:53;100523.19;;;15.48;86.39
2339;BME280;1180;51.438;6.978;2023-02-17T11:24:18;100521.19;;;15.29;86.96
2339;BME280;1180;51.438;6.978;2023-02-17T11:26:54;100523.84;;;15.16;87.50
2339;BME280;1180;51.438;6.978;2023-02-17T11:29:22;100511.16;;;15.24;87.51
2339;BME280;1180;51.438;6.978;2023-02-17T11:32:09;100512.72;;;15.50;87.10
2339;BME280;1180;51.438;6.978;2023-02-17T11:34:38;100504.97;;;15.50;86.57
2339;BME280;1180;51.438;6.978;2023-02-17T11:39:40;100508.63;;;15.81;84.53
2339;BME280;1180;51.438;6.978;2023-02-17T11:44:52;100507.66;;;15.71;84.33
2339;BME280;1180;51.438;6.978;2023-02-17T11:50:51;100518.97;;;15.81;83.97
2339;BME280;1180;51.438;6.978;2023-02-17T12:15:06;100475.81;;;15.93;82.23
2339;BME280;1180;51.438;6.978;2023-02-17T12:28:39;100497.63;;;16.23;81.49
2339;BME280;1180;51.438;6.978;2023-02-17T12:34:30;100482.59;;;16.06;82.27
2339;BME280;1180;51.438;6.978;2023-02-17T12:36:58;100488.50;;;16.08;83.04
2339;BME280;1180;51.438;6.978;2023-02-17T12:39:33;100481.84;;;16.26;82.12
2339;BME280;1180;51.438;6.978;2023-02-17T12:42:30;100474.09;;;16.15;82.23
2339;BME280;1180;51.438;6.978;2023-02-17T12:47:42;100494.97;;;16.13;81.82
2339;BME280;1180;51.438;6.978;2023-02-17T12:52:55;100487.78;;;16.06;82.17
2339;BME280;1180;51.438;6.978;2023-02-17T12:55:53;100490.16;;;15.97;83.10
2339;BME280;1180;51.438;6.978;2023-02-17T12:58:24;100484.53;;;15.92;83.03
2339;BME280;1180;51.438;6.978;2023-02-17T13:03:32;100479.22;;;15.94;83.33
2339;BME280;1180;51.438;6.978;2023-02-17T13:06:05;100497.44;;;16.03;83.24
2339;BME280;1180;51.438;6.978;2023-02-17T13:09:02;100492.25;;;16.03;83.73
2339;BME280;1180;51.438;6.978;2023-02-17T13:11:28;100490.34;;;16.17;82.98
2339;BME280;1180;51.438;6.978;2023-02-17T13:13:54;100483.16;;;16.21;82.12
2339;BME280;1180;51.438;6.978;2023-02-17T13:16:20;100481.84;;;16.26;82.27
2339;BME280;1180;51.438;6.978;2023-02-17T13:18:47;100493.56;;;16.09;83.53
2339;BME280;1180;51.438;6.978;2023-02-17T13:24:12;100509.97;;;16.31;83.02
2339;BME280;1180;51.438;6.978;2023-02-17T13:26:39;100500.84;;;16.48;82.48
2339;BME280;1180;51.438;6.978;2023-02-17T13:32:00;100508.44;;;16.61;81.30
2339;BME280;1180;51.438;6.978;2023-02-17T13:34:36;100505.16;;;16.59;81.43
2339;BME280;1180;51.438;6.978;2023-02-17T13:37:55;100508.25;;;16.53;81.92
2339;BME280;1180;51.438;6.978;2023-02-17T13:42:52;100511.03;;;16.61;80.77
2339;BME280;1180;51.438;6.978;2023-02-17T13:45:31;100538.19;;;16.34;81.69
2339;BME280;1180;51.438;6.978;2023-02-17T13:48:09;100520.59;;;16.16;82.27
2339;BME280;1180;51.438;6.978;2023-02-17T13:50:42;100527.28;;;16.19;82.39
2339;BME280;1180;51.438;6.978;2023-02-17T13:53:30;100548.25;;;16.16;82.93
2339;BME280;1180;51.438;6.978;2023-02-17T13:56:02;100529.41;;;16.14;82.44
2339;BME280;1180;51.438;6.978;2023-02-17T13:58:32;100544.22;;;16.23;81.92
2339;BME280;1180;51.438;6.978;2023-02-17T14:01:00;100553.75;;;16.34;81.17
2339;BME280;1180;51.438;6.978;2023-02-17T14:06:08;100557.19;;;16.12;81.83
2339;BME280;1180;51.438;6.978;2023-02-17T14:08:39;100575.28;;;16.23;81.30
2339;BME280;1180;51.438;6.978;2023-02-17T14:13:35;100569.78;;;16.16;80.93
2339;BME280;1180;51.438;6.978;2023-02-17T14:16:01;100576.41;;;16.09;81.38
2339;BME280;1180;51.438;6.978;2023-02-17T14:18:36;100576.72;;;16.27;80.87
2339;BME280;1180;51.438;6.978;2023-02-17T14:21:23;100575.44;;;16.22;80.29
2339;BME280;1180;51.438;6.978;2023-02-17T14:23:51;100587.91;;;15.94;81.87
2339;BME280;1180;51.438;6.978;2023-02-17T14:28:53;100591.28;;;15.71;83.03
2339;BME280;1180;51.438;6.978;2023-02-17T14:31:19;100587.75;;;15.72;83.51
2339;BME280;1180;51.438;6.978;2023-02-17T14:33:57;100598.22;;;15.71;83.41
2339;BME280;1180;51.438;6.978;2023-02-17T14:36:34;100623.50;;;15.67;83.91
2339;BME280;1180;51.438;6.978;2023-02-17T14:39:03;100610.81;;;15.64;84.20
2339;BME280;1180;51.438;6.978;2023-02-17T14:41:28;100624.56;;;15.65;84.11
2339;BME280;1180;51.438;6.978;2023-02-17T14:43:54;100616.34;;;15.82;83.83
2339;BME280;1180;51.438;6.978;2023-02-17T14:46:19;100617.88;;;15.85;83.87
2339;BME280;1180;51.438;6.978;2023-02-17T14:48:46;100613.31;;;15.77;83.85
2339;BME280;1180;51.438;6.978;2023-02-17T14:51:14;100635.94;;;15.51;86.29
2339;BME280;1180;51.438;6.978;2023-02-17T14:53:40;100611.22;;;15.35;87.89
2339;BME280;1180;51.438;6.978;2023-02-17T14:56:24;100624.88;;;15.49;88.49
2339;BME280;1180;51.438;6.978;2023-02-17T14:58:50;100624.94;;;15.24;89.49
2339;BME280;1180;51.438;6.978;2023-02-17T15:01:20;100631.66;;;15.27;90.79
2339;BME280;1180;51.438;6.978;2023-02-17T15:03:46;100633.66;;;15.35;90.44
2339;BME280;1180;51.438;6.978;2023-02-17T15:08:44;100633.81;;;15.56;88.46
2339;BME280;1180;51.438;6.978;2023-02-17T15:11:17;100630.41;;;15.44;89.75